sensor_id;sensor_type;location;lat;lon;timestamp;temperature;humidity
23385;DHT22;11865;45.394;10.978;2023-06-10T00:02:28;21.50;99.90
23385;DHT22;11865;45.394;10.978;2023-06-10T00:04:56;21.50;99.90
23385;DHT22;11865;45.394;10.978;2023-06-10T00:07:24;21.40;99.90
23385;DHT22;11865;45.394;10.978;2023-06-10T00:09:52;21.30;99.90
23385;DHT22;11865;45.394;10.978;2023-06-10T00:12:20;21.20;99.90
23385;DHT22;11865;45.394;10.978;2023-06-10T00:14:47;21.10;99.90
23385;DHT22;11865;45.394;10.978;2023-06-10T00:17:17;21.10;99.90
23385;DHT22;11865;45.394;10.978;2023-06-10T00:19:45;21.30;99.90
23385;DHT22;11865;45.394;10.978;2023-06-10T00:22:14;21.40;99.90
23385;DHT22;11865;45.394;10.978;2023-06-10T00:24:42;21.40;99.90
23385;DHT22;11865;45.394;10.978;2023-06-10T00:27:09;21.20;99.90
23385;DHT22;11865;45.394;10.978;2023-06-10T00:29:37;21.10;99.90
23385;DHT22;11865;45.394;10.978;2023-06-10T00:32:06;21.30;99.90
23385;DHT22;11865;45.394;10.978;2023-06-10T00:34:35;21.50;99.90
23385;DHT22;11865;45.394;10.978;2023-06-10T00:37:03;21.50;99.90
23385;DHT22;11865;45.394;10.978;2023-06-10T00:39:30;21.50;99.90
23385;DHT22;11865;45.394;10.978;2023-06-10T00:41:58;21.30;99.90
23385;DHT22;11865;45.394;10.978;2023-06-10T00:44:26;21.10;99.90
23385;DHT22;11865;45.394;10.978;2023-06-10T00:46:54;21.00;99.90
23385;DHT22;11865;45.394;10.978;2023-06-10T00:49:23;21.00;99.90
23385;DHT22;11865;45.394;10.978;2023-06-10T00:51:52;20.90;99.90
23385;DHT22;11865;45.394;10.978;2023-06-10T00:54:20;20.90;99.90
23385;DHT22;11865;45.394;10.978;2023-06-10T00:56:49;20.80;99.90
23385;DHT22;11865;45.394;10.978;2023-06-10T00:59:17;20.80;99.90
23385;DHT22;11865;45.394;10.978;2023-06-10T01:01:46;20.80;99.90
23385;DHT22;11865;45.394;10.978;2023-06-10T01:04:16;20.70;99.90
23385;DHT22;11865;45.394;10.978;2023-06-10T01:10:03;20.70;99.90
23385;DHT22;11865;45.394;10.978;2023-06-10T01:12:42;20.70;99.90
23385;DHT22;11865;45.394;10.978;2023-06-10T01:15:16;20.70;99.90
23385;DHT22;11865;45.394;10.978;2023-06-10T01:17:55;20.70;99.90
23385;DHT22;11865;45.394;10.978;2023-06-10T01:20:26;20.70;99.90
23385;DHT22;11865;45.394;10.978;2023-06-10T01:22:56;20.80;99.90
23385;DHT22;11865;45.394;10.978;2023-06-10T01:25:27;20.80;99.90
23385;DHT22;11865;45.394;10.978;2023-06-10T01:28:14;20.80;99.90
23385;DHT22;11865;45.394;10.978;2023-06-10T01:31:03;20.80;99.90
23385;DHT22;11865;45.394;10.978;2023-06-10T01:33:39;20.80;99.90
23385;DHT22;11865;45.394;10.978;2023-06-10T01:36:09;20.70;99.90
23385;DHT22;11865;45.394;10.978;2023-06-10T01:38:44;20.70;99.90
23385;DHT22;11865;45.394;10.978;2023-06-10T01:41:16;20.70;99.90
23385;DHT22;11865;45.394;10.978;2023-06-10T01:43:45;20.80;99.90
23385;DHT22;11865;45.394;10.978;2023-06-10T01:46:14;20.70;99.90
23385;DHT22;11865;45.394;10.978;2023-06-10T01:48:42;20.70;99.90
23385;DHT22;11865;45.394;10.978;2023-06-10T01:51:10;20.70;99.90
23385;DHT22;11865;45.394;10.978;2023-06-10T01:53:37;20.70;99.90
23385;DHT22;11865;45.394;10.978;2023-06-10T01:56:05;20.60;99.90
23385;DHT22;11865;45.394;10.978;2023-06-10T01:58:32;20.50;99.90
23385;DHT22;11865;45.394;10.978;2023-06-10T02:01:00;20.50;99.90
23385;DHT22;11865;45.394;10.978;2023-06-10T02:03:28;20.40;99.90
23385;DHT22;11865;45.394;10.978;2023-06-10T02:05:56;20.40;99.90
23385;DHT22;11865;45.394;10.978;2023-06-10T02:08:23;20.40;99.90
23385;DHT22;11865;45.394;10.978;2023-06-10T02:10:51;20.40;99.90
23385;DHT22;11865;45.394;10.978;2023-06-10T02:13:19;20.30;99.90
23385;DHT22;11865;45.394;10.978;2023-06-10T02:15:51;20.30;99.90
23385;DHT22;11865;45.394;10.978;2023-06-10T02:18:21;20.20;99.90
23385;DHT22;11865;45.394;10.978;2023-06-10T02:20:49;20.20;99.90
23385;DHT22;11865;45.394;10.978;2023-06-10T02:23:16;20.10;99.90
23385;DHT22;11865;45.394;10.978;2023-06-10T02:25:44;20.10;99.90
23385;DHT22;11865;45.394;10.978;2023-06-10T02:28:11;20.20;99.90
23385;DHT22;11865;45.394;10.978;2023-06-10T02:30:42;20.20;99.90
23385;DHT22;11865;45.394;10.978;2023-06-10T02:33:10;20.30;99.90
23385;DHT22;11865;45.394;10.978;2023-06-10T02:35:39;20.20;99.90
23385;DHT22;11865;45.394;10.978;2023-06-10T02:38:06;20.20;99.90
23385;DHT22;11865;45.394;10.978;2023-06-10T02:40:35;20.20;99.90
23385;DHT22;11865;45.394;10.978;2023-06-10T02:43:02;20.20;99.90
23385;DHT22;11865;45.394;10.978;2023-06-10T02:45:31;20.10;99.90
23385;DHT22;11865;45.394;10.978;2023-06-10T02:48:01;20.10;99.90
23385;DHT22;11865;45.394;10.978;2023-06-10T02:50:30;20.10;99.90
23385;DHT22;11865;45.394;10.978;2023-06-10T02:53:20;20.20;99.90
23385;DHT22;11865;45.394;10.978;2023-06-10T02:55:54;20.40;99.90
23385;DHT22;11865;45.394;10.978;2023-06-10T02:58:21;20.50;99.90
23385;DHT22;11865;45.394;10.978;2023-06-10T03:00:50;20.50;99.90
23385;DHT22;11865;45.394;10.978;2023-06-10T03:03:17;20.50;99.90
23385;DHT22;11865;45.394;10.978;2023-06-10T03:05:55;20.50;99.90
23385;DHT22;11865;45.394;10.978;2023-06-10T03:08:25;20.50;99.90
23385;DHT22;11865;45.394;10.978;2023-06-10T03:10:54;20.60;99.90
23385;DHT22;11865;45.394;10.978;2023-06-10T03:13:23;20.60;99.90
23385;DHT22;11865;45.394;10.978;2023-06-10T03:15:51;20.50;99.90
23385;DHT22;11865;45.394;10.978;2023-06-10T03:18:21;20.30;99.90
23385;DHT22;11865;45.394;10.978;2023-06-10T03:20:50;20.30;99.90
23385;DHT22;11865;45.394;10.978;2023-06-10T03:23:19;20.20;99.90
23385;DHT22;11865;45.394;10.978;2023-06-10T03:25:47;20.20;99.90
23385;DHT22;11865;45.394;10.978;2023-06-10T03:28:17;20.10;99.90
23385;DHT22;11865;45.394;10.978;2023-06-10T03:30:45;20.10;99.90
23385;DHT22;11865;45.394;10.978;2023-06-10T03:33:13;20.00;99.90
23385;DHT22;11865;45.394;10.978;2023-06-10T03:35:42;20.20;99.90
23385;DHT22;11865;45.394;10.978;2023-06-10T03:38:11;20.20;99.90
23385;DHT22;11865;45.394;10.978;2023-06-10T03:40:39;20.20;99.90
23385;DHT22;11865;45.394;10.978;2023-06-10T03:43:07;20.20;99.90
23385;DHT22;11865;45.394;10.978;2023-06-10T03:45:35;20.20;99.90
23385;DHT22;11865;45.394;10.978;2023-06-10T03:48:04;20.30;99.90
23385;DHT22;11865;45.394;10.978;2023-06-10T03:50:41;20.30;99.90
23385;DHT22;11865;45.394;10.978;2023-06-10T03:53:08;20.30;99.90
23385;DHT22;11865;45.394;10.978;2023-06-10T03:55:38;20.40;99.90
23385;DHT22;11865;45.394;10.978;2023-06-10T03:58:06;20.40;99.90
23385;DHT22;11865;45.394;10.978;2023-06-10T04:00:34;20.40;99.90
23385;DHT22;11865;45.394;10.978;2023-06-10T04:03:09;20.40;99.90
23385;DHT22;11865;45.394;10.978;2023-06-10T04:05:45;20.50;99.90
23385;DHT22;11865;45.394;10.978;2023-06-10T04:08:13;20.50;99.90
23385;DHT22;11865;45.394;10.978;2023-06-10T04:10:40;20.50;99.90
23385;DHT22;11865;45.394;10.978;2023-06-10T04:13:08;20.30;99.90
23385;DHT22;11865;45.394;10.978;2023-06-10T04:15:43;20.20;99.90
23385;DHT22;11865;45.394;10.978;2023-06-10T04:18:15;20.10;99.90
23385;DHT22;11865;45.394;10.978;2023-06-10T04:20:44;20.10;99.90
23385;DHT22;11865;45.394;10.978;2023-06-10T04:23:12;20.10;99.90
23385;DHT22;11865;45.394;10.978;2023-06-10T04:25:42;20.10;99.90
23385;DHT22;11865;45.394;10.978;2023-06-10T04:28:11;20.10;99.90
23385;DHT22;11865;45.394;10.978;2023-06-10T04:30:38;20.20;99.90
23385;DHT22;11865;45.394;10.978;2023-06-10T04:33:06;20.40;99.90
23385;DHT22;11865;45.394;10.978;2023-06-10T04:35:37;20.60;99.90
23385;DHT22;11865;45.394;10.978;2023-06-10T04:38:07;20.70;99.90
23385;DHT22;11865;45.394;10.978;2023-06-10T04:40:34;20.80;99.90
23385;DHT22;11865;45.394;10.978;2023-06-10T04:43:03;20.90;99.90
23385;DHT22;11865;45.394;10.978;2023-06-10T04:45:32;20.90;99.90
23385;DHT22;11865;45.394;10.978;2023-06-10T04:48:00;20.90;99.90
23385;DHT22;11865;45.394;10.978;2023-06-10T04:50:28;20.90;99.90
23385;DHT22;11865;45.394;10.978;2023-06-10T04:52:56;21.00;99.90
23385;DHT22;11865;45.394;10.978;2023-06-10T04:55:26;21.00;99.90
23385;DHT22;11865;45.394;10.978;2023-06-10T04:57:53;21.00;99.90
23385;DHT22;11865;45.394;10.978;2023-06-10T05:00:21;20.90;99.90
23385;DHT22;11865;45.394;10.978;2023-06-10T05:02:48;20.90;99.90
23385;DHT22;11865;45.394;10.978;2023-06-10T05:05:17;21.00;99.90
23385;DHT22;11865;45.394;10.978;2023-06-10T05:07:45;21.10;99.90
23385;DHT22;11865;45.394;10.978;2023-06-10T05:10:13;21.10;99.90
23385;DHT22;11865;45.394;10.978;2023-06-10T05:12:41;21.10;99.90
23385;DHT22;11865;45.394;10.978;2023-06-10T05:15:09;21.00;99.90
23385;DHT22;11865;45.394;10.978;2023-06-10T05:17:37;21.10;99.90
23385;DHT22;11865;45.394;10.978;2023-06-10T05:20:05;21.00;99.90
23385;DHT22;11865;45.394;10.978;2023-06-10T05:22:33;21.00;99.90
23385;DHT22;11865;45.394;10.978;2023-06-10T05:25:01;21.00;99.90
23385;DHT22;11865;45.394;10.978;2023-06-10T05:27:29;21.10;99.90
23385;DHT22;11865;45.394;10.978;2023-06-10T05:29:56;21.00;99.90
23385;DHT22;11865;45.394;10.978;2023-06-10T05:32:24;21.10;99.90
23385;DHT22;11865;45.394;10.978;2023-06-10T05:34:51;21.00;99.90
23385;DHT22;11865;45.394;10.978;2023-06-10T05:37:19;21.20;99.90
23385;DHT22;11865;45.394;10.978;2023-06-10T05:39:47;21.10;99.90
23385;DHT22;11865;45.394;10.978;2023-06-10T05:42:14;21.20;99.90
23385;DHT22;11865;45.394;10.978;2023-06-10T05:44:42;21.40;99.90
23385;DHT22;11865;45.394;10.978;2023-06-10T05:47:09;21.60;99.90
23385;DHT22;11865;45.394;10.978;2023-06-10T05:49:37;21.50;99.90
23385;DHT22;11865;45.394;10.978;2023-06-10T05:52:05;21.60;99.90
23385;DHT22;11865;45.394;10.978;2023-06-10T05:54:32;21.60;99.90
23385;DHT22;11865;45.394;10.978;2023-06-10T05:57:00;21.70;99.90
23385;DHT22;11865;45.394;10.978;2023-06-10T05:59:27;21.70;99.90
23385;DHT22;11865;45.394;10.978;2023-06-10T06:01:55;21.90;99.90
23385;DHT22;11865;45.394;10.978;2023-06-10T06:04:23;21.80;99.90
23385;DHT22;11865;45.394;10.978;2023-06-10T06:06:50;21.80;99.90
23385;DHT22;11865;45.394;10.978;2023-06-10T06:09:18;21.80;99.90
23385;DHT22;11865;45.394;10.978;2023-06-10T06:11:45;21.80;99.90
23385;DHT22;11865;45.394;10.978;2023-06-10T06:14:13;22.00;99.90
23385;DHT22;11865;45.394;10.978;2023-06-10T06:16:40;22.00;99.90
23385;DHT22;11865;45.394;10.978;2023-06-10T06:19:08;22.10;99.90
23385;DHT22;11865;45.394;10.978;2023-06-10T06:21:37;22.20;99.90
23385;DHT22;11865;45.394;10.978;2023-06-10T06:24:05;22.30;99.90
23385;DHT22;11865;45.394;10.978;2023-06-10T06:26:33;22.30;99.90
23385;DHT22;11865;45.394;10.978;2023-06-10T06:29:01;22.30;99.90
23385;DHT22;11865;45.394;10.978;2023-06-10T06:31:28;22.50;99.90
23385;DHT22;11865;45.394;10.978;2023-06-10T06:33:56;22.60;99.90
23385;DHT22;11865;45.394;10.978;2023-06-10T06:36:23;22.50;99.90
23385;DHT22;11865;45.394;10.978;2023-06-10T06:38:51;22.60;99.90
23385;DHT22;11865;45.394;10.978;2023-06-10T06:41:21;22.60;99.90
23385;DHT22;11865;45.394;10.978;2023-06-10T06:43:49;22.60;99.90
23385;DHT22;11865;45.394;10.978;2023-06-10T06:46:36;22.40;99.90
23385;DHT22;11865;45.394;10.978;2023-06-10T06:49:04;22.50;99.90
23385;DHT22;11865;45.394;10.978;2023-06-10T06:51:31;22.50;99.90
23385;DHT22;11865;45.394;10.978;2023-06-10T06:53:59;22.50;99.90
23385;DHT22;11865;45.394;10.978;2023-06-10T06:56:27;22.80;99.90
23385;DHT22;11865;45.394;10.978;2023-06-10T06:58:55;22.70;99.90
23385;DHT22;11865;45.394;10.978;2023-06-10T07:01:25;22.70;99.90
23385;DHT22;11865;45.394;10.978;2023-06-10T07:03:53;22.90;99.90
23385;DHT22;11865;45.394;10.978;2023-06-10T07:06:20;22.90;99.90
23385;DHT22;11865;45.394;10.978;2023-06-10T07:08:49;23.10;99.90
23385;DHT22;11865;45.394;10.978;2023-06-10T07:11:17;23.00;99.90
23385;DHT22;11865;45.394;10.978;2023-06-10T07:13:45;23.30;99.90
23385;DHT22;11865;45.394;10.978;2023-06-10T07:16:12;23.00;99.90
23385;DHT22;11865;45.394;10.978;2023-06-10T07:18:40;23.20;99.90
23385;DHT22;11865;45.394;10.978;2023-06-10T07:21:07;23.20;99.90
23385;DHT22;11865;45.394;10.978;2023-06-10T07:23:35;23.20;99.90
23385;DHT22;11865;45.394;10.978;2023-06-10T07:26:02;23.20;99.90
23385;DHT22;11865;45.394;10.978;2023-06-10T07:28:30;23.20;99.90
23385;DHT22;11865;45.394;10.978;2023-06-10T07:30:57;23.40;99.90
23385;DHT22;11865;45.394;10.978;2023-06-10T07:33:25;23.40;99.90
23385;DHT22;11865;45.394;10.978;2023-06-10T07:35:53;23.00;99.90
23385;DHT22;11865;45.394;10.978;2023-06-10T07:38:21;23.00;99.90
23385;DHT22;11865;45.394;10.978;2023-06-10T07:40:48;22.80;99.90
23385;DHT22;11865;45.394;10.978;2023-06-10T07:43:16;23.10;99.90
23385;DHT22;11865;45.394;10.978;2023-06-10T07:45:44;22.90;99.90
23385;DHT22;11865;45.394;10.978;2023-06-10T07:48:12;23.10;99.90
23385;DHT22;11865;45.394;10.978;2023-06-10T07:50:39;22.80;99.90
23385;DHT22;11865;45.394;10.978;2023-06-10T07:53:07;22.80;99.90
23385;DHT22;11865;45.394;10.978;2023-06-10T07:55:35;23.10;99.90
23385;DHT22;11865;45.394;10.978;2023-06-10T07:58:02;23.00;99.90
23385;DHT22;11865;45.394;10.978;2023-06-10T08:00:30;23.20;99.90
23385;DHT22;11865;45.394;10.978;2023-06-10T08:02:57;23.20;99.90
23385;DHT22;11865;45.394;10.978;2023-06-10T08:05:25;23.30;99.90
23385;DHT22;11865;45.394;10.978;2023-06-10T08:07:53;23.50;99.90
23385;DHT22;11865;45.394;10.978;2023-06-10T08:10:21;23.70;99.90
23385;DHT22;11865;45.394;10.978;2023-06-10T08:12:48;23.40;99.90
23385;DHT22;11865;45.394;10.978;2023-06-10T08:15:16;23.20;99.90
23385;DHT22;11865;45.394;10.978;2023-06-10T08:17:43;23.40;99.90
23385;DHT22;11865;45.394;10.978;2023-06-10T08:20:11;23.30;99.90
23385;DHT22;11865;45.394;10.978;2023-06-10T08:22:39;23.50;99.90
23385;DHT22;11865;45.394;10.978;2023-06-10T08:25:07;23.30;99.90
23385;DHT22;11865;45.394;10.978;2023-06-10T08:27:35;23.50;99.90
23385;DHT22;11865;45.394;10.978;2023-06-10T08:30:03;23.50;99.90
23385;DHT22;11865;45.394;10.978;2023-06-10T08:32:31;23.60;99.90
23385;DHT22;11865;45.394;10.978;2023-06-10T08:34:58;23.30;99.90
23385;DHT22;11865;45.394;10.978;2023-06-10T08:37:26;23.50;99.90
23385;DHT22;11865;45.394;10.978;2023-06-10T08:39:54;23.40;99.90
23385;DHT22;11865;45.394;10.978;2023-06-10T08:42:44;23.30;99.90
23385;DHT22;11865;45.394;10.978;2023-06-10T08:45:16;23.40;99.90
23385;DHT22;11865;45.394;10.978;2023-06-10T08:47:45;23.20;99.90
23385;DHT22;11865;45.394;10.978;2023-06-10T08:50:16;23.20;99.90
23385;DHT22;11865;45.394;10.978;2023-06-10T08:52:46;23.40;99.90
23385;DHT22;11865;45.394;10.978;2023-06-10T08:55:18;23.60;99.90
23385;DHT22;11865;45.394;10.978;2023-06-10T08:57:57;23.90;99.90
23385;DHT22;11865;45.394;10.978;2023-06-10T09:00:26;23.80;99.90
23385;DHT22;11865;45.394;10.978;2023-06-10T09:02:56;24.00;99.90
23385;DHT22;11865;45.394;10.978;2023-06-10T09:05:24;23.80;99.90
23385;DHT22;11865;45.394;10.978;2023-06-10T09:07:56;23.90;99.90
23385;DHT22;11865;45.394;10.978;2023-06-10T09:10:24;23.80;99.90
23385;DHT22;11865;45.394;10.978;2023-06-10T09:12:53;24.00;99.90
23385;DHT22;11865;45.394;10.978;2023-06-10T09:15:21;24.00;99.90
23385;DHT22;11865;45.394;10.978;2023-06-10T09:17:48;24.40;98.90
23385;DHT22;11865;45.394;10.978;2023-06-10T09:20:16;24.60;97.60
23385;DHT22;11865;45.394;10.978;2023-06-10T09:22:44;24.80;97.80
23385;DHT22;11865;45.394;10.978;2023-06-10T09:25:13;24.40;97.80
23385;DHT22;11865;45.394;10.978;2023-06-10T09:27:51;24.50;99.00
23385;DHT22;11865;45.394;10.978;2023-06-10T09:30:32;24.20;97.00
23385;DHT22;11865;45.394;10.978;2023-06-10T09:33:03;24.50;98.30
23385;DHT22;11865;45.394;10.978;2023-06-10T09:35:37;24.40;97.20
23385;DHT22;11865;45.394;10.978;2023-06-10T09:38:12;24.50;96.50
23385;DHT22;11865;45.394;10.978;2023-06-10T09:40:54;24.60;96.00
23385;DHT22;11865;45.394;10.978;2023-06-10T09:43:22;24.40;96.20
23385;DHT22;11865;45.394;10.978;2023-06-10T09:45:51;24.20;95.90
23385;DHT22;11865;45.394;10.978;2023-06-10T09:48:22;24.00;96.90
23385;DHT22;11865;45.394;10.978;2023-06-10T09:50:51;24.00;97.90
23385;DHT22;11865;45.394;10.978;2023-06-10T09:53:18;24.20;97.00
23385;DHT22;11865;45.394;10.978;2023-06-10T09:55:47;24.20;96.50
23385;DHT22;11865;45.394;10.978;2023-06-10T09:58:15;24.30;95.90
23385;DHT22;11865;45.394;10.978;2023-06-10T10:00:42;24.60;95.20
23385;DHT22;11865;45.394;10.978;2023-06-10T10:03:10;24.90;96.10
23385;DHT22;11865;45.394;10.978;2023-06-10T10:05:49;24.60;95.80
23385;DHT22;11865;45.394;10.978;2023-06-10T10:08:17;24.90;95.10
23385;DHT22;11865;45.394;10.978;2023-06-10T10:10:44;24.90;95.00
23385;DHT22;11865;45.394;10.978;2023-06-10T10:13:12;25.20;94.10
23385;DHT22;11865;45.394;10.978;2023-06-10T10:15:40;25.10;94.60
23385;DHT22;11865;45.394;10.978;2023-06-10T10:18:14;24.70;94.70
23385;DHT22;11865;45.394;10.978;2023-06-10T10:20:50;25.10;93.50
23385;DHT22;11865;45.394;10.978;2023-06-10T10:23:29;24.80;93.80
23385;DHT22;11865;45.394;10.978;2023-06-10T10:26:00;24.80;93.90
23385;DHT22;11865;45.394;10.978;2023-06-10T10:28:45;24.90;94.00
23385;DHT22;11865;45.394;10.978;2023-06-10T10:31:18;24.80;94.60
23385;DHT22;11865;45.394;10.978;2023-06-10T10:33:59;24.70;95.30
23385;DHT22;11865;45.394;10.978;2023-06-10T10:36:28;25.20;93.90
23385;DHT22;11865;45.394;10.978;2023-06-10T10:38:56;25.20;94.00
23385;DHT22;11865;45.394;10.978;2023-06-10T10:41:26;25.30;93.90
23385;DHT22;11865;45.394;10.978;2023-06-10T10:43:54;25.40;93.80
23385;DHT22;11865;45.394;10.978;2023-06-10T10:46:23;25.20;94.40
23385;DHT22;11865;45.394;10.978;2023-06-10T10:48:54;25.40;94.40
23385;DHT22;11865;45.394;10.978;2023-06-10T10:51:23;25.20;94.50
23385;DHT22;11865;45.394;10.978;2023-06-10T10:54:13;24.60;94.20
23385;DHT22;11865;45.394;10.978;2023-06-10T10:57:14;25.40;93.50
23385;DHT22;11865;45.394;10.978;2023-06-10T11:02:32;25.80;94.60
23385;DHT22;11865;45.394;10.978;2023-06-10T11:05:01;25.70;93.10
23385;DHT22;11865;45.394;10.978;2023-06-10T11:07:31;25.60;94.50
23385;DHT22;11865;45.394;10.978;2023-06-10T11:10:12;25.60;93.80
23385;DHT22;11865;45.394;10.978;2023-06-10T11:15:09;25.20;95.00
23385;DHT22;11865;45.394;10.978;2023-06-10T11:17:37;25.40;94.30
23385;DHT22;11865;45.394;10.978;2023-06-10T11:20:05;25.40;94.70
23385;DHT22;11865;45.394;10.978;2023-06-10T11:22:58;25.80;94.30
23385;DHT22;11865;45.394;10.978;2023-06-10T11:25:38;26.20;93.30
23385;DHT22;11865;45.394;10.978;2023-06-10T11:28:19;26.80;93.20
23385;DHT22;11865;45.394;10.978;2023-06-10T11:30:57;26.70;92.50
23385;DHT22;11865;45.394;10.978;2023-06-10T11:33:25;26.30;93.10
23385;DHT22;11865;45.394;10.978;2023-06-10T11:35:53;26.30;93.50
23385;DHT22;11865;45.394;10.978;2023-06-10T11:38:21;26.10;94.80
23385;DHT22;11865;45.394;10.978;2023-06-10T11:40:48;26.00;94.30
23385;DHT22;11865;45.394;10.978;2023-06-10T11:43:17;25.80;94.60
23385;DHT22;11865;45.394;10.978;2023-06-10T11:45:45;26.30;95.10
23385;DHT22;11865;45.394;10.978;2023-06-10T11:48:13;26.10;93.70
23385;DHT22;11865;45.394;10.978;2023-06-10T11:50:41;26.10;93.90
23385;DHT22;11865;45.394;10.978;2023-06-10T11:53:09;26.40;92.70
23385;DHT22;11865;45.394;10.978;2023-06-10T11:55:47;26.10;93.20
23385;DHT22;11865;45.394;10.978;2023-06-10T11:58:20;26.40;92.70
23385;DHT22;11865;45.394;10.978;2023-06-10T12:00:50;26.50;92.10
23385;DHT22;11865;45.394;10.978;2023-06-10T12:03:18;25.80;93.10
23385;DHT22;11865;45.394;10.978;2023-06-10T12:06:00;26.40;93.10
23385;DHT22;11865;45.394;10.978;2023-06-10T12:08:28;25.80;93.90
23385;DHT22;11865;45.394;10.978;2023-06-10T12:10:57;26.10;93.80
23385;DHT22;11865;45.394;10.978;2023-06-10T12:13:28;26.00;93.20
23385;DHT22;11865;45.394;10.978;2023-06-10T12:16:09;26.20;93.10
23385;DHT22;11865;45.394;10.978;2023-06-10T12:18:37;26.30;92.90
23385;DHT22;11865;45.394;10.978;2023-06-10T12:21:16;25.60;93.20
23385;DHT22;11865;45.394;10.978;2023-06-10T12:24:09;25.90;92.40
23385;DHT22;11865;45.394;10.978;2023-06-10T12:26:41;26.10;92.40
23385;DHT22;11865;45.394;10.978;2023-06-10T12:31:59;25.60;93.70
23385;DHT22;11865;45.394;10.978;2023-06-10T12:34:37;26.00;92.80
23385;DHT22;11865;45.394;10.978;2023-06-10T12:37:10;25.80;94.10
23385;DHT22;11865;45.394;10.978;2023-06-10T12:39:41;26.10;93.60
23385;DHT22;11865;45.394;10.978;2023-06-10T12:42:09;26.40;93.00
23385;DHT22;11865;45.394;10.978;2023-06-10T12:44:40;26.40;92.40
23385;DHT22;11865;45.394;10.978;2023-06-10T12:47:10;26.50;90.90
23385;DHT22;11865;45.394;10.978;2023-06-10T12:49:39;26.50;91.60
23385;DHT22;11865;45.394;10.978;2023-06-10T12:52:07;26.40;92.40
23385;DHT22;11865;45.394;10.978;2023-06-10T12:54:34;26.50;91.80
23385;DHT22;11865;45.394;10.978;2023-06-10T12:57:02;26.50;90.50
23385;DHT22;11865;45.394;10.978;2023-06-10T12:59:30;26.50;91.70
23385;DHT22;11865;45.394;10.978;2023-06-10T13:01:59;27.10;90.60
23385;DHT22;11865;45.394;10.978;2023-06-10T13:04:27;27.50;90.20
23385;DHT22;11865;45.394;10.978;2023-06-10T13:06:54;27.10;89.40
23385;DHT22;11865;45.394;10.978;2023-06-10T13:09:22;27.70;88.00
23385;DHT22;11865;45.394;10.978;2023-06-10T13:11:50;28.20;88.30
23385;DHT22;11865;45.394;10.978;2023-06-10T13:14:17;28.60;90.80
23385;DHT22;11865;45.394;10.978;2023-06-10T13:16:45;28.00;89.20
23385;DHT22;11865;45.394;10.978;2023-06-10T13:19:12;27.50;85.80
23385;DHT22;11865;45.394;10.978;2023-06-10T13:21:40;27.90;88.90
23385;DHT22;11865;45.394;10.978;2023-06-10T13:24:07;27.90;90.20
23385;DHT22;11865;45.394;10.978;2023-06-10T13:26:35;28.30;88.90
23385;DHT22;11865;45.394;10.978;2023-06-10T13:29:02;27.90;89.30
23385;DHT22;11865;45.394;10.978;2023-06-10T13:31:30;28.20;87.50
23385;DHT22;11865;45.394;10.978;2023-06-10T13:33:58;28.40;88.70
23385;DHT22;11865;45.394;10.978;2023-06-10T13:36:26;27.80;90.90
23385;DHT22;11865;45.394;10.978;2023-06-10T13:38:53;27.00;91.80
23385;DHT22;11865;45.394;10.978;2023-06-10T13:41:21;27.00;92.50
23385;DHT22;11865;45.394;10.978;2023-06-10T13:43:48;26.90;92.00
23385;DHT22;11865;45.394;10.978;2023-06-10T13:46:16;26.70;93.60
23385;DHT22;11865;45.394;10.978;2023-06-10T13:48:44;27.00;92.70
23385;DHT22;11865;45.394;10.978;2023-06-10T13:51:11;26.50;92.80
23385;DHT22;11865;45.394;10.978;2023-06-10T13:53:39;26.50;94.00
23385;DHT22;11865;45.394;10.978;2023-06-10T13:56:06;26.40;93.30
23385;DHT22;11865;45.394;10.978;2023-06-10T13:58:34;26.70;93.00
23385;DHT22;11865;45.394;10.978;2023-06-10T14:01:06;26.60;93.00
23385;DHT22;11865;45.394;10.978;2023-06-10T14:03:33;26.80;94.60
23385;DHT22;11865;45.394;10.978;2023-06-10T14:06:01;26.50;93.50
23385;DHT22;11865;45.394;10.978;2023-06-10T14:08:29;26.80;93.90
23385;DHT22;11865;45.394;10.978;2023-06-10T14:10:57;26.50;93.60
23385;DHT22;11865;45.394;10.978;2023-06-10T14:13:24;26.60;93.80
23385;DHT22;11865;45.394;10.978;2023-06-10T14:15:52;26.60;94.30
23385;DHT22;11865;45.394;10.978;2023-06-10T14:18:19;26.30;93.30
23385;DHT22;11865;45.394;10.978;2023-06-10T14:20:47;26.20;93.00
23385;DHT22;11865;45.394;10.978;2023-06-10T14:23:14;26.00;93.60
23385;DHT22;11865;45.394;10.978;2023-06-10T14:25:42;26.30;92.50
23385;DHT22;11865;45.394;10.978;2023-06-10T14:28:10;26.20;92.70
23385;DHT22;11865;45.394;10.978;2023-06-10T14:30:37;26.20;94.00
23385;DHT22;11865;45.394;10.978;2023-06-10T14:33:05;26.40;93.90
23385;DHT22;11865;45.394;10.978;2023-06-10T14:35:33;26.20;93.60
23385;DHT22;11865;45.394;10.978;2023-06-10T14:38:00;26.60;94.00
23385;DHT22;11865;45.394;10.978;2023-06-10T14:40:28;26.70;93.50
23385;DHT22;11865;45.394;10.978;2023-06-10T14:42:56;27.00;92.80
23385;DHT22;11865;45.394;10.978;2023-06-10T14:45:23;27.20;92.70
23385;DHT22;11865;45.394;10.978;2023-06-10T14:47:52;27.40;92.80
23385;DHT22;11865;45.394;10.978;2023-06-10T14:50:20;27.60;93.00
23385;DHT22;11865;45.394;10.978;2023-06-10T14:52:47;27.50;92.10
23385;DHT22;11865;45.394;10.978;2023-06-10T14:55:15;27.50;91.50
23385;DHT22;11865;45.394;10.978;2023-06-10T14:57:43;27.20;91.70
23385;DHT22;11865;45.394;10.978;2023-06-10T15:00:11;27.10;92.20
23385;DHT22;11865;45.394;10.978;2023-06-10T15:02:39;27.30;91.40
23385;DHT22;11865;45.394;10.978;2023-06-10T15:05:07;27.10;91.90
23385;DHT22;11865;45.394;10.978;2023-06-10T15:07:35;27.20;92.60
23385;DHT22;11865;45.394;10.978;2023-06-10T15:10:02;27.20;91.00
23385;DHT22;11865;45.394;10.978;2023-06-10T15:12:30;27.00;92.10
23385;DHT22;11865;45.394;10.978;2023-06-10T15:14:57;27.40;91.80
23385;DHT22;11865;45.394;10.978;2023-06-10T15:17:25;27.60;90.70
23385;DHT22;11865;45.394;10.978;2023-06-10T15:19:52;27.60;91.10
23385;DHT22;11865;45.394;10.978;2023-06-10T15:22:20;27.40;90.10
23385;DHT22;11865;45.394;10.978;2023-06-10T15:24:48;27.20;91.00
23385;DHT22;11865;45.394;10.978;2023-06-10T15:27:15;27.20;92.80
23385;DHT22;11865;45.394;10.978;2023-06-10T15:29:43;27.20;90.40
23385;DHT22;11865;45.394;10.978;2023-06-10T15:32:10;27.30;90.50
23385;DHT22;11865;45.394;10.978;2023-06-10T15:34:45;27.10;91.10
23385;DHT22;11865;45.394;10.978;2023-06-10T15:37:15;27.10;90.30
23385;DHT22;11865;45.394;10.978;2023-06-10T15:39:42;27.20;91.40
23385;DHT22;11865;45.394;10.978;2023-06-10T15:42:10;27.30;91.60